createdAt,value
2022-10-06T00:00:08.108Z,100.00
2022-10-06T00:03:11.099Z,100.00
2022-10-06T00:06:16.361Z,100.00
2022-10-06T00:09:19.290Z,100.00
2022-10-06T00:12:22.256Z,100.00
2022-10-06T00:15:29.158Z,100.00
2022-10-06T00:18:32.311Z,100.00
2022-10-06T00:21:35.422Z,100.00
2022-10-06T00:24:38.351Z,100.00
2022-10-06T00:27:43.249Z,100.00
2022-10-06T00:30:48.274Z,100.00
2022-10-06T00:33:51.624Z,100.00
2022-10-06T00:36:54.530Z,100.00
2022-10-06T00:39:57.581Z,100.00
2022-10-06T00:43:02.432Z,100.00
2022-10-06T00:46:08.448Z,100.00
2022-10-06T00:49:17.637Z,100.00
2022-10-06T00:52:24.230Z,100.00
2022-10-06T00:55:27.157Z,100.00
2022-10-06T00:58:30.466Z,100.00
2022-10-06T01:01:35.930Z,100.00
2022-10-06T01:04:42.423Z,100.00
2022-10-06T01:07:45.599Z,100.00
2022-10-06T01:10:48.598Z,100.00
2022-10-06T01:13:51.724Z,100.00
2022-10-06T01:17:00.684Z,100.00
2022-10-06T01:20:08.965Z,100.00
2022-10-06T01:23:14.256Z,100.00
2022-10-06T01:26:19.625Z,100.00
2022-10-06T01:29:23.083Z,100.00
2022-10-06T01:32:28.248Z,100.00
2022-10-06T01:35:31.199Z,100.00
2022-10-06T01:38:36.589Z,100.00
2022-10-06T01:41:40.550Z,100.00
2022-10-06T01:44:43.891Z,100.00
2022-10-06T01:47:47.788Z,100.00
2022-10-06T01:50:51.150Z,100.00
2022-10-06T01:53:55.518Z,100.00
2022-10-06T01:56:58.519Z,100.00
2022-10-06T02:00:02.844Z,100.00
2022-10-06T02:03:15.642Z,100.00
2022-10-06T02:06:18.734Z,100.00
2022-10-06T02:09:23.678Z,100.00
2022-10-06T02:12:26.760Z,100.00
2022-10-06T02:15:33.182Z,100.00
2022-10-06T02:18:36.640Z,100.00
2022-10-06T02:21:39.682Z,100.00
2022-10-06T02:24:43.998Z,100.00
2022-10-06T02:27:47.589Z,100.00
2022-10-06T02:30:50.611Z,100.00
2022-10-06T02:33:53.751Z,100.00
2022-10-06T02:36:57.814Z,100.00
2022-10-06T02:40:02.550Z,100.00
2022-10-06T02:43:07.478Z,100.00
2022-10-06T02:46:13.160Z,100.00
2022-10-06T02:49:22.076Z,100.00
2022-10-06T02:52:25.745Z,100.00
2022-10-06T02:55:31.273Z,100.00
2022-10-06T02:58:36.082Z,100.00
2022-10-06T03:01:44.273Z,100.00
2022-10-06T03:04:51.959Z,100.00
2022-10-06T03:07:54.945Z,100.00
2022-10-06T03:11:04.044Z,100.00
2022-10-06T03:14:07.942Z,100.00
2022-10-06T03:17:11.094Z,100.00
2022-10-06T03:20:20.612Z,100.00
2022-10-06T03:23:23.747Z,100.00
2022-10-06T03:26:30.178Z,100.00
2022-10-06T03:29:35.110Z,100.00
2022-10-06T03:32:39.239Z,100.00
2022-10-06T03:35:44.037Z,100.00
2022-10-06T03:38:47.417Z,100.00
2022-10-06T03:41:52.000Z,100.00
2022-10-06T03:44:55.303Z,100.00
2022-10-06T03:47:59.264Z,100.00
2022-10-06T03:51:05.291Z,100.00
2022-10-06T03:54:10.788Z,100.00
2022-10-06T03:57:16.505Z,100.00
2022-10-06T04:00:19.711Z,100.00
2022-10-06T04:03:22.713Z,100.00
2022-10-06T04:06:26.874Z,100.00
2022-10-06T04:09:30.835Z,100.00
2022-10-06T04:12:36.297Z,100.00
2022-10-06T04:15:39.907Z,100.00
2022-10-06T04:18:44.261Z,100.00
2022-10-06T04:21:48.845Z,100.00
2022-10-06T04:24:57.579Z,100.00
2022-10-06T04:28:02.248Z,100.00
2022-10-06T04:31:12.844Z,100.00
2022-10-06T04:34:16.061Z,100.00
2022-10-06T04:37:21.049Z,100.00
2022-10-06T04:40:25.031Z,100.00
2022-10-06T04:43:29.658Z,100.00
2022-10-06T04:46:49.404Z,100.00
2022-10-06T04:49:54.134Z,100.00
2022-10-06T04:52:57.235Z,100.00
2022-10-06T04:56:01.837Z,100.00
2022-10-06T04:59:08.411Z,100.00
2022-10-06T05:02:14.821Z,100.00
2022-10-06T05:05:19.106Z,100.00
2022-10-06T05:08:23.069Z,100.00
2022-10-06T05:11:27.053Z,100.00
2022-10-06T05:14:33.655Z,100.00
2022-10-06T05:17:36.790Z,100.00
2022-10-06T05:20:39.812Z,100.00
2022-10-06T05:23:44.369Z,100.00
2022-10-06T05:26:50.023Z,100.00
2022-10-06T05:29:54.650Z,100.00
2022-10-06T05:32:57.919Z,100.00
2022-10-06T05:36:02.764Z,100.00
2022-10-06T05:39:06.598Z,100.00
2022-10-06T05:42:26.193Z,100.00
2022-10-06T05:45:33.138Z,100.00
2022-10-06T05:48:36.594Z,100.00
2022-10-06T05:51:40.154Z,100.00
2022-10-06T05:54:47.505Z,100.00
2022-10-06T05:57:50.459Z,100.00
2022-10-06T06:00:54.754Z,100.00
2022-10-06T06:04:00.343Z,100.00
2022-10-06T06:07:04.529Z,100.00
2022-10-06T06:10:09.455Z,100.00
2022-10-06T06:13:12.341Z,100.00
2022-10-06T06:16:26.076Z,100.00
2022-10-06T06:19:29.649Z,100.00
2022-10-06T06:22:32.509Z,100.00
2022-10-06T06:25:35.417Z,100.00
2022-10-06T06:28:40.369Z,100.00
2022-10-06T06:31:46.296Z,100.00
2022-10-06T06:34:49.230Z,100.00
2022-10-06T06:37:52.300Z,100.00
2022-10-06T06:40:55.455Z,100.00
2022-10-06T06:44:00.147Z,100.00
2022-10-06T06:47:12.714Z,100.00
2022-10-06T06:50:17.327Z,100.00
2022-10-06T06:53:20.321Z,100.00
2022-10-06T06:56:23.583Z,100.00
2022-10-06T06:59:26.603Z,100.00
2022-10-06T07:02:33.632Z,100.00
2022-10-06T07:05:36.950Z,100.00
2022-10-06T07:08:43.092Z,100.00
2022-10-06T07:11:46.247Z,100.00
2022-10-06T07:15:11.547Z,100.00
2022-10-06T07:18:36.419Z,100.00
2022-10-06T07:21:57.923Z,100.00
2022-10-06T07:25:08.691Z,100.00
2022-10-06T07:28:17.207Z,100.00
2022-10-06T07:31:20.437Z,100.00
2022-10-06T07:34:25.807Z,100.00
2022-10-06T07:37:29.763Z,100.00
2022-10-06T07:40:35.046Z,100.00
2022-10-06T07:43:38.220Z,100.00
2022-10-06T07:46:42.547Z,100.00
2022-10-06T07:49:51.001Z,100.00
2022-10-06T07:52:54.153Z,100.00
2022-10-06T07:56:05.413Z,100.00
2022-10-06T07:59:11.855Z,100.00
2022-10-06T08:02:14.840Z,100.00
2022-10-06T08:05:19.199Z,100.00
2022-10-06T08:08:22.072Z,100.00
2022-10-06T08:11:25.007Z,100.00
2022-10-06T08:14:27.921Z,100.00
2022-10-06T08:17:31.130Z,100.00
2022-10-06T08:20:35.357Z,100.00
2022-10-06T08:23:42.223Z,100.00
2022-10-06T08:26:45.166Z,100.00
2022-10-06T08:29:48.281Z,100.00
2022-10-06T08:32:51.260Z,100.00
2022-10-06T08:35:55.533Z,100.00
2022-10-06T08:38:58.534Z,100.00
2022-10-06T08:42:01.487Z,100.00
2022-10-06T08:45:07.581Z,100.00
2022-10-06T08:48:14.310Z,100.00
2022-10-06T08:51:34.946Z,100.00
2022-10-06T08:54:43.209Z,100.00
2022-10-06T08:57:59.622Z,100.00
2022-10-06T09:01:13.943Z,100.00
2022-10-06T09:04:26.419Z,100.00
2022-10-06T09:07:39.704Z,100.00
2022-10-06T09:10:49.226Z,100.00
2022-10-06T09:13:56.402Z,100.00
2022-10-06T09:17:07.619Z,100.00
2022-10-06T09:20:15.786Z,100.00
2022-10-06T09:23:41.736Z,100.00
2022-10-06T09:26:46.508Z,100.00
2022-10-06T09:29:50.157Z,100.00
2022-10-06T09:32:59.358Z,100.00
2022-10-06T09:36:09.353Z,100.00
2022-10-06T09:39:24.746Z,100.00
2022-10-06T09:42:30.029Z,100.00
2022-10-06T09:45:32.919Z,100.00
2022-10-06T09:48:35.871Z,100.00
2022-10-06T09:51:38.778Z,100.00
2022-10-06T09:54:44.775Z,100.00
2022-10-06T09:57:53.700Z,100.00
2022-10-06T10:01:01.059Z,100.00
2022-10-06T10:04:20.647Z,100.00
2022-10-06T10:07:26.117Z,100.00
2022-10-06T10:10:30.778Z,100.00
2022-10-06T10:13:44.227Z,100.00
2022-10-06T10:16:52.353Z,100.00
2022-10-06T10:19:56.743Z,100.00
2022-10-06T10:23:02.763Z,100.00
2022-10-06T10:26:18.625Z,100.00
2022-10-06T10:29:59.472Z,100.00
2022-10-06T10:33:11.327Z,100.00
2022-10-06T10:36:17.674Z,100.00
2022-10-06T10:39:31.497Z,100.00
2022-10-06T10:42:41.091Z,100.00
2022-10-06T10:45:48.539Z,96.78
2022-10-06T10:48:57.043Z,97.79
2022-10-06T10:52:09.053Z,95.11
2022-10-06T10:55:23.419Z,95.24
2022-10-06T10:58:35.123Z,96.36
2022-10-06T11:01:45.245Z,92.71
2022-10-06T11:04:56.679Z,91.51
2022-10-06T11:08:07.845Z,88.91
2022-10-06T11:11:20.163Z,88.11
2022-10-06T11:14:49.473Z,84.58
2022-10-06T11:18:01.266Z,86.11
2022-10-06T11:21:12.217Z,85.97
2022-10-06T11:24:24.336Z,90.97
2022-10-06T11:27:38.387Z,85.48
2022-10-06T11:30:56.987Z,87.64
2022-10-06T11:34:03.083Z,85.24
2022-10-06T11:37:20.089Z,83.66
2022-10-06T11:40:38.197Z,84.59
2022-10-06T11:43:50.321Z,85.93
2022-10-06T11:46:58.146Z,86.11
2022-10-06T11:50:01.375Z,86.96
2022-10-06T11:53:05.860Z,84.82
2022-10-06T11:56:45.743Z,79.99
2022-10-06T11:59:49.743Z,81.56
2022-10-06T12:02:54.675Z,83.51
2022-10-06T12:05:58.329Z,83.56
2022-10-06T12:09:01.984Z,87.88
2022-10-06T12:13:05.304Z,84.41
2022-10-06T12:19:58.378Z,83.19
2022-10-06T12:23:07.441Z,84.99
2022-10-06T12:26:24.903Z,88.21
2022-10-06T12:29:50.197Z,82.54
2022-10-06T12:32:55.530Z,84.71
2022-10-06T12:36:04.744Z,86.81
2022-10-06T12:39:23.552Z,87.80
2022-10-06T12:42:31.542Z,87.21
2022-10-06T12:45:35.418Z,86.17
2022-10-06T12:48:43.250Z,88.48
2022-10-06T12:51:48.737Z,86.45
2022-10-06T12:55:04.680Z,85.51
2022-10-06T12:58:19.003Z,86.07
2022-10-06T13:01:23.622Z,84.68
2022-10-06T13:04:38.130Z,84.48
2022-10-06T13:11:19.725Z,84.33
2022-10-06T13:14:22.587Z,85.27
2022-10-06T13:17:25.695Z,84.97
2022-10-06T13:20:36.525Z,84.26
2022-10-06T13:23:40.740Z,82.10
2022-10-06T13:26:46.872Z,85.99
2022-10-06T13:29:50.176Z,86.77
2022-10-06T13:32:55.540Z,81.51
2022-10-06T13:35:59.474Z,83.13
2022-10-06T13:39:06.154Z,81.79
2022-10-06T13:42:17.706Z,84.15
2022-10-06T13:45:20.981Z,85.46
2022-10-06T13:48:26.024Z,81.00
2022-10-06T13:51:31.726Z,86.25
2022-10-06T13:54:41.304Z,78.23
2022-10-06T13:57:47.725Z,77.93
2022-10-06T14:00:56.132Z,79.15
2022-10-06T14:04:19.122Z,79.31
2022-10-06T14:07:22.172Z,78.36
2022-10-06T14:10:30.101Z,80.94
2022-10-06T14:13:42.504Z,77.76
2022-10-06T14:16:49.584Z,79.83
2022-10-06T14:19:53.284Z,80.82
2022-10-06T14:22:56.222Z,81.23
2022-10-06T14:25:59.079Z,81.40
2022-10-06T14:29:03.326Z,83.33
2022-10-06T14:32:11.147Z,82.02
2022-10-06T14:35:14.047Z,79.70
2022-10-06T14:38:17.722Z,77.60
2022-10-06T14:41:24.745Z,77.27
2022-10-06T14:44:28.995Z,78.15
2022-10-06T14:47:32.218Z,76.98
2022-10-06T14:50:35.919Z,75.13
2022-10-06T14:53:40.363Z,77.38
2022-10-06T14:56:43.522Z,77.63
2022-10-06T14:59:47.905Z,75.67
2022-10-06T15:02:51.673Z,75.98
2022-10-06T15:06:12.420Z,77.95
2022-10-06T15:09:15.735Z,80.77
2022-10-06T15:12:18.904Z,80.13
2022-10-06T15:15:23.344Z,81.17
2022-10-06T15:18:26.613Z,79.88
2022-10-06T15:21:31.459Z,79.74
2022-10-06T15:24:34.499Z,82.05
2022-10-06T15:27:54.723Z,81.63
2022-10-06T15:30:59.395Z,82.73
2022-10-06T15:34:04.455Z,82.83
2022-10-06T15:37:07.584Z,82.83
2022-10-06T15:40:11.116Z,83.85
2022-10-06T15:43:14.005Z,86.70
2022-10-06T15:46:18.474Z,84.47
2022-10-06T15:49:22.922Z,88.23
2022-10-06T15:52:25.946Z,89.66
2022-10-06T15:55:29.013Z,88.17
2022-10-06T15:58:31.901Z,88.48
2022-10-06T16:01:43.780Z,95.39
2022-10-06T16:04:57.673Z,100.00
2022-10-06T16:08:00.568Z,100.00
2022-10-06T16:11:03.715Z,100.00
2022-10-06T16:14:07.279Z,100.00
2022-10-06T16:17:12.079Z,100.00
2022-10-06T16:20:16.604Z,100.00
2022-10-06T16:23:19.540Z,100.00
2022-10-06T16:26:23.587Z,100.00
2022-10-06T16:29:27.735Z,100.00
2022-10-06T16:32:32.106Z,100.00
2022-10-06T16:35:35.154Z,100.00
2022-10-06T16:38:38.308Z,100.00
2022-10-06T16:41:41.415Z,100.00
2022-10-06T16:44:44.454Z,100.00
2022-10-06T16:47:49.084Z,100.00
2022-10-06T16:51:03.161Z,100.00
2022-10-06T16:54:10.905Z,100.00
2022-10-06T16:57:13.800Z,100.00
2022-10-06T17:00:17.068Z,100.00
2022-10-06T17:03:21.333Z,100.00
2022-10-06T17:06:24.253Z,100.00
2022-10-06T17:09:28.755Z,100.00
2022-10-06T17:12:31.776Z,100.00
2022-10-06T17:15:34.733Z,100.00
2022-10-06T17:18:39.651Z,100.00
2022-10-06T17:21:48.081Z,100.00
2022-10-06T17:24:52.733Z,100.00
2022-10-06T17:27:55.819Z,100.00
2022-10-06T17:31:00.017Z,100.00
2022-10-06T17:34:05.922Z,100.00
2022-10-06T17:37:09.060Z,100.00
2022-10-06T17:40:12.248Z,100.00
2022-10-06T17:43:15.103Z,100.00
2022-10-06T17:46:20.638Z,100.00
2022-10-06T17:49:26.318Z,100.00
2022-10-06T17:52:29.218Z,100.00
2022-10-06T17:55:32.293Z,100.00
2022-10-06T17:58:36.345Z,100.00
2022-10-06T18:01:39.650Z,100.00
2022-10-06T18:04:44.113Z,100.00
2022-10-06T18:07:46.951Z,100.00
2022-10-06T18:11:09.780Z,100.00
2022-10-06T18:14:14.403Z,100.00
2022-10-06T18:17:18.375Z,100.00
2022-10-06T18:20:22.813Z,100.00
2022-10-06T18:23:25.852Z,100.00
2022-10-06T18:26:28.894Z,100.00
2022-10-06T18:29:34.845Z,100.00
2022-10-06T18:34:46.828Z,100.00
2022-10-06T18:36:18.135Z,100.00
2022-10-06T18:39:21.305Z,100.00
2022-10-06T18:42:24.791Z,100.00
2022-10-06T18:45:45.277Z,100.00
2022-10-06T18:48:58.597Z,100.00
2022-10-06T18:52:03.257Z,100.00
2022-10-06T18:55:07.000Z,100.00
2022-10-06T18:58:10.163Z,100.00
2022-10-06T19:01:13.657Z,100.00
2022-10-06T19:04:18.559Z,100.00
2022-10-06T19:07:22.828Z,100.00
2022-10-06T19:10:25.985Z,100.00
2022-10-06T19:13:28.873Z,100.00
2022-10-06T19:16:31.935Z,100.00
2022-10-06T19:19:35.052Z,100.00
2022-10-06T19:22:39.505Z,100.00
2022-10-06T19:25:43.261Z,100.00
2022-10-06T19:28:46.758Z,100.00
2022-10-06T19:31:50.066Z,100.00
2022-10-06T19:34:54.900Z,100.00
2022-10-06T19:37:59.957Z,100.00
2022-10-06T19:41:17.372Z,100.00
2022-10-06T19:44:20.342Z,100.00
2022-10-06T19:47:23.382Z,100.00
2022-10-06T19:50:26.341Z,100.00
2022-10-06T19:53:30.705Z,100.00
2022-10-06T19:56:33.597Z,100.00
2022-10-06T19:59:36.936Z,100.00
2022-10-06T20:02:42.388Z,100.00
2022-10-06T20:05:45.934Z,100.00
2022-10-06T20:08:51.779Z,100.00
2022-10-06T20:11:54.783Z,100.00
2022-10-06T20:14:58.171Z,100.00
2022-10-06T20:18:01.942Z,100.00
2022-10-06T20:21:04.991Z,100.00
2022-10-06T20:24:13.538Z,100.00
2022-10-06T20:27:16.473Z,100.00
2022-10-06T20:30:19.618Z,100.00
2022-10-06T20:33:22.753Z,100.00
2022-10-06T20:36:26.029Z,100.00
2022-10-06T20:39:49.286Z,100.00
2022-10-06T20:42:54.828Z,100.00
2022-10-06T20:45:57.850Z,100.00
2022-10-06T20:49:03.461Z,100.00
2022-10-06T20:52:06.811Z,100.00
2022-10-06T20:55:11.228Z,100.00
2022-10-06T20:58:14.283Z,100.00
2022-10-06T21:01:17.735Z,100.00
2022-10-06T21:04:21.967Z,100.00
2022-10-06T21:07:25.077Z,100.00
2022-10-06T21:10:29.465Z,100.00
2022-10-06T21:13:33.041Z,100.00
2022-10-06T21:16:37.045Z,100.00
2022-10-06T21:19:40.087Z,100.00
2022-10-06T21:22:43.121Z,100.00
2022-10-06T21:25:47.520Z,100.00
2022-10-06T21:28:52.585Z,100.00
2022-10-06T21:31:55.711Z,100.00
2022-10-06T21:34:59.630Z,100.00
2022-10-06T21:38:03.767Z,100.00
2022-10-06T21:41:29.500Z,100.00
2022-10-06T21:44:32.641Z,100.00
2022-10-06T21:47:35.773Z,100.00
2022-10-06T21:50:38.771Z,100.00
2022-10-06T21:53:42.382Z,100.00
2022-10-06T21:56:47.309Z,100.00
2022-10-06T21:59:50.308Z,100.00
2022-10-06T22:02:53.514Z,100.00
2022-10-06T22:05:56.824Z,100.00
2022-10-06T22:09:00.553Z,100.00
2022-10-06T22:12:05.422Z,100.00
2022-10-06T22:15:08.843Z,100.00
2022-10-06T22:18:11.893Z,100.00
2022-10-06T22:21:16.827Z,100.00
2022-10-06T22:24:21.502Z,100.00
2022-10-06T22:27:25.932Z,100.00
2022-10-06T22:30:29.023Z,100.00
2022-10-06T22:33:32.185Z,100.00
2022-10-06T22:36:36.146Z,100.00
2022-10-06T22:39:39.335Z,100.00
2022-10-06T22:42:43.779Z,100.00
2022-10-06T22:45:46.844Z,100.00
2022-10-06T22:48:49.873Z,100.00
2022-10-06T22:51:52.909Z,100.00
2022-10-06T22:54:55.897Z,100.00
2022-10-06T22:58:00.316Z,100.00
2022-10-06T23:01:10.525Z,100.00
2022-10-06T23:04:13.736Z,100.00
2022-10-06T23:07:16.850Z,100.00
2022-10-06T23:10:20.442Z,100.00
2022-10-06T23:13:24.814Z,100.00
2022-10-06T23:16:27.941Z,100.00
2022-10-06T23:19:31.033Z,100.00
2022-10-06T23:22:34.227Z,100.00
2022-10-06T23:25:40.254Z,100.00
2022-10-06T23:28:44.863Z,100.00
2022-10-06T23:31:47.994Z,100.00
2022-10-06T23:34:51.079Z,100.00
2022-10-06T23:37:54.064Z,100.00
2022-10-06T23:40:57.255Z,100.00
2022-10-06T23:44:01.839Z,100.00
2022-10-06T23:47:05.278Z,100.00
2022-10-06T23:50:09.067Z,100.00
2022-10-06T23:53:12.060Z,100.00
2022-10-06T23:56:15.395Z,100.00
2022-10-06T23:59:19.963Z,100.00
